createdAt,value
2023-04-20T00:00:01.349Z,1026.44
2023-04-20T00:10:02.006Z,1026.41
2023-04-20T00:20:01.686Z,1026.44
2023-04-20T00:30:01.227Z,1026.38
2023-04-20T00:40:01.986Z,1026.30
2023-04-20T00:50:01.417Z,1026.32
2023-04-20T01:00:01.778Z,1026.28
2023-04-20T01:10:01.118Z,1026.21
2023-04-20T01:20:00.982Z,1026.17
2023-04-20T01:30:01.074Z,1026.18
2023-04-20T01:40:01.634Z,1026.15
2023-04-20T01:50:01.005Z,1026.03
2023-04-20T02:00:02.621Z,1026.06
2023-04-20T02:20:01.046Z,1026.14
2023-04-20T02:30:01.114Z,1026.21
2023-04-20T02:40:00.970Z,1026.16
2023-04-20T02:50:02.078Z,1026.17
2023-04-20T03:00:01.417Z,1026.21
2023-04-20T03:20:01.161Z,1026.17
2023-04-20T03:30:01.449Z,1026.23
2023-04-20T03:40:01.926Z,1026.34
2023-04-20T03:50:01.897Z,1026.38
2023-04-20T04:00:01.567Z,1026.31
2023-04-20T04:10:01.262Z,1026.32
2023-04-20T04:20:01.492Z,1026.41
2023-04-20T04:30:00.946Z,1026.51
2023-04-20T04:40:01.523Z,1026.56
2023-04-20T04:50:00.248Z,1026.66
2023-04-20T05:00:01.184Z,1026.82
2023-04-20T05:10:03.760Z,1026.56
2023-04-20T05:20:01.002Z,1026.74
2023-04-20T05:30:12.960Z,1026.72
2023-04-20T05:40:01.514Z,1026.85
2023-04-20T05:50:01.066Z,1026.92
2023-04-20T06:00:01.186Z,1026.94
2023-04-20T06:10:01.132Z,1026.99
2023-04-20T06:20:01.468Z,1027.00
2023-04-20T06:40:01.458Z,1027.16
2023-04-20T06:50:03.829Z,1027.18
2023-04-20T07:00:01.473Z,1026.98
2023-04-20T07:10:03.979Z,1027.09
2023-04-20T07:20:02.464Z,1027.14
2023-04-20T07:30:01.086Z,1027.28
2023-04-20T07:40:02.810Z,1027.31
2023-04-20T07:50:00.284Z,1027.27
2023-04-20T08:00:01.524Z,1027.40
2023-04-20T08:20:02.333Z,1027.31
2023-04-20T08:40:01.560Z,1027.43
2023-04-20T08:50:01.495Z,1027.60
2023-04-20T09:00:02.005Z,1027.55
2023-04-20T09:10:00.267Z,1027.50
2023-04-20T09:20:01.338Z,1027.54
2023-04-20T09:30:01.169Z,1027.55
2023-04-20T09:40:01.247Z,1027.52
2023-04-20T09:50:10.667Z,1027.40
2023-04-20T10:00:01.592Z,1027.21
2023-04-20T10:10:01.369Z,1027.24
2023-04-20T10:20:01.306Z,1027.26
2023-04-20T10:30:02.074Z,1027.26
2023-04-20T10:40:02.094Z,1027.19
2023-04-20T11:00:01.601Z,1026.79
2023-04-20T11:10:04.106Z,1026.82
2023-04-20T11:20:00.229Z,1026.81
2023-04-20T11:30:02.062Z,1026.85
2023-04-20T11:40:01.471Z,1026.78
2023-04-20T12:00:01.535Z,1026.59
2023-04-20T12:10:04.835Z,1026.42
2023-04-20T12:20:01.068Z,1026.40
2023-04-20T12:30:01.123Z,1026.33
2023-04-20T12:40:01.224Z,1026.18
2023-04-20T12:50:01.079Z,1026.06
2023-04-20T13:00:02.937Z,1025.94
2023-04-20T13:10:01.892Z,1025.81
2023-04-20T13:20:01.766Z,1025.71
2023-04-20T13:40:02.335Z,1025.64
2023-04-20T13:50:01.034Z,1025.56
2023-04-20T14:00:02.424Z,1025.32
2023-04-20T14:10:04.412Z,1025.29
2023-04-20T14:20:01.134Z,1025.23
2023-04-20T14:30:01.296Z,1025.18
2023-04-20T14:40:01.298Z,1025.10
2023-04-20T14:50:01.039Z,1024.92
2023-04-20T15:00:01.200Z,1024.84
2023-04-20T15:10:01.339Z,1024.79
2023-04-20T15:20:00.960Z,1024.80
2023-04-20T15:30:01.281Z,1024.83
2023-04-20T15:40:01.300Z,1024.78
2023-04-20T15:50:04.621Z,1024.73
2023-04-20T16:00:01.029Z,1024.73
2023-04-20T16:10:01.073Z,1024.65
2023-04-20T16:20:03.300Z,1024.73
2023-04-20T16:30:01.144Z,1024.77
2023-04-20T16:40:03.554Z,1024.73
2023-04-20T16:50:01.076Z,1024.64
2023-04-20T17:00:01.996Z,1024.64
2023-04-20T17:10:01.552Z,1024.81
2023-04-20T17:20:02.005Z,1024.85
2023-04-20T17:30:01.935Z,1024.95
2023-04-20T17:40:01.197Z,1024.93
2023-04-20T17:50:01.066Z,1024.89
2023-04-20T18:00:01.552Z,1025.05
2023-04-20T18:10:01.528Z,1025.15
2023-04-20T18:20:01.354Z,1025.22
2023-04-20T18:30:01.562Z,1025.25
2023-04-20T18:40:00.966Z,1025.37
2023-04-20T18:50:02.734Z,1025.38
2023-04-20T19:00:02.321Z,1025.37
2023-04-20T19:10:01.087Z,1025.37
2023-04-20T19:20:04.749Z,1025.37
2023-04-20T19:30:01.927Z,1025.36
2023-04-20T19:40:01.919Z,1025.37
2023-04-20T19:50:02.245Z,1025.38
2023-04-20T20:00:01.368Z,1025.37
2023-04-20T20:10:01.223Z,1025.36
2023-04-20T20:20:00.981Z,1025.37
2023-04-20T20:30:01.434Z,1025.42
2023-04-20T20:40:03.556Z,1025.54
2023-04-20T20:50:03.599Z,1025.49
2023-04-20T21:00:01.271Z,1025.43
2023-04-20T21:10:01.037Z,1025.42
2023-04-20T21:20:01.268Z,1025.43
2023-04-20T21:30:04.482Z,1025.39
2023-04-20T21:40:01.919Z,1025.47
2023-04-20T21:50:01.539Z,1025.44
2023-04-20T22:00:00.239Z,1025.45
2023-04-20T22:10:01.082Z,1025.51
2023-04-20T22:20:01.019Z,1025.51
2023-04-20T22:30:01.360Z,1025.52
2023-04-20T22:40:00.972Z,1025.55
2023-04-20T22:50:01.017Z,1025.57
2023-04-20T23:00:03.019Z,1025.58
2023-04-20T23:10:01.017Z,1025.63
2023-04-20T23:20:02.050Z,1025.58
2023-04-20T23:30:01.340Z,1025.62
2023-04-20T23:40:01.103Z,1025.55
2023-04-20T23:50:01.060Z,1025.58
